Time;durP1;ratioP1;P1;durP2;ratioP2;P2;SDS_P1;SDS_P2;PMS_P1;PMS_P2;Temp;Humidity;BMP_temperature;BMP_pressure;BME280_temperature;BME280_humidity;BME280_pressure;Samples;Min_cycle;Max_cycle;Signal;HPM_P1;HPM_P2
2021/03/07 00:01:50;;;;;;;9.47;4.83;;;1.40;61.50;;;;;;4961320;28;20066;-73
2021/03/07 00:04:16;;;;;;;8.30;5.10;;;1.40;61.40;;;;;;4968134;28;20045;-73
2021/03/07 00:06:41;;;;;;;10.03;5.00;;;1.40;61.20;;;;;;4970018;28;20035;-73
2021/03/07 00:09:07;;;;;;;9.43;5.00;;;1.40;61.40;;;;;;4961333;28;20372;-72
2021/03/07 00:11:33;;;;;;;10.23;5.90;;;1.30;61.60;;;;;;4972138;28;20082;-73
2021/03/07 00:13:59;;;;;;;13.40;5.90;;;1.40;61.50;;;;;;4954298;28;20060;-72
2021/03/07 00:16:24;;;;;;;9.23;4.60;;;1.40;61.40;;;;;;4972215;28;20495;-73
2021/03/07 00:18:50;;;;;;;12.20;5.60;;;1.40;61.50;;;;;;4969768;28;20035;-73
2021/03/07 00:21:16;;;;;;;11.30;5.47;;;1.40;61.60;;;;;;4964458;28;20039;-72
2021/03/07 00:23:41;;;;;;;9.67;5.10;;;1.40;61.00;;;;;;4969452;28;20027;-73
2021/03/07 00:26:08;;;;;;;10.97;5.30;;;1.40;61.20;;;;;;4966013;28;20044;-72
2021/03/07 00:28:33;;;;;;;9.47;5.23;;;1.40;61.20;;;;;;4971504;28;20039;-73
2021/03/07 00:30:59;;;;;;;9.47;5.13;;;1.40;61.20;;;;;;4968617;28;20031;-72
2021/03/07 00:33:24;;;;;;;7.77;4.93;;;1.30;61.20;;;;;;4964051;28;20031;-73
2021/03/07 00:35:50;;;;;;;11.53;5.37;;;1.30;61.50;;;;;;4974634;28;20074;-73
2021/03/07 00:38:16;;;;;;;7.30;4.90;;;1.30;62.20;;;;;;4975353;28;20089;-73
2021/03/07 00:40:42;;;;;;;9.27;4.90;;;1.30;61.60;;;;;;4972158;28;20156;-73
2021/03/07 00:43:08;;;;;;;9.80;5.40;;;1.30;61.80;;;;;;4967231;28;20035;-72
2021/03/07 00:45:34;;;;;;;9.37;4.70;;;1.30;61.70;;;;;;4965803;28;20169;-73
2021/03/07 00:48:00;;;;;;;11.03;5.03;;;1.30;61.60;;;;;;4958368;28;20061;-72
2021/03/07 00:50:26;;;;;;;10.20;5.00;;;1.30;62.30;;;;;;4955179;28;20094;-70
2021/03/07 00:52:56;;;;;;;8.73;5.33;;;1.20;61.70;;;;;;4968672;28;20090;-71
2021/03/07 00:55:23;;;;;;;9.43;4.87;;;1.10;62.00;;;;;;4955334;28;20051;-69
2021/03/07 00:57:49;;;;;;;9.37;5.13;;;1.10;62.00;;;;;;4965966;28;20090;-69
2021/03/07 01:00:24;;;;;;;10.50;5.73;;;0.90;61.80;;;;;;4957935;28;20035;-70
2021/03/07 01:02:50;;;;;;;10.50;5.43;;;1.00;62.00;;;;;;4944581;28;20125;-70
2021/03/07 01:05:16;;;;;;;9.67;5.13;;;1.00;61.80;;;;;;4974817;28;20066;-69
2021/03/07 01:07:42;;;;;;;9.97;4.63;;;0.80;62.00;;;;;;4974128;28;20054;-70
2021/03/07 01:10:15;;;;;;;8.90;5.00;;;0.70;62.80;;;;;;4958445;28;20035;-70
2021/03/07 01:12:41;;;;;;;8.73;4.60;;;0.60;62.90;;;;;;4969450;28;20039;-70
2021/03/07 01:15:08;;;;;;;9.57;4.30;;;0.50;64.00;;;;;;4962002;28;20174;-69
2021/03/07 01:17:34;;;;;;;9.60;5.23;;;0.50;63.60;;;;;;4973978;28;20039;-70
2021/03/07 01:19:59;;;;;;;8.97;4.57;;;0.60;63.30;;;;;;4969538;28;20043;-70
2021/03/07 01:22:25;;;;;;;8.00;4.47;;;0.60;62.90;;;;;;4957115;28;20385;-70
2021/03/07 01:24:51;;;;;;;8.43;4.43;;;0.60;62.80;;;;;;4967979;28;20050;-70
2021/03/07 01:27:16;;;;;;;10.13;5.17;;;0.50;63.00;;;;;;4961925;28;20090;-70
2021/03/07 01:29:42;;;;;;;9.03;4.90;;;0.50;62.90;;;;;;4961062;28;20495;-70
2021/03/07 01:32:08;;;;;;;10.27;4.70;;;0.50;63.10;;;;;;4968510;28;20042;-70
2021/03/07 01:34:33;;;;;;;8.50;4.50;;;0.50;62.70;;;;;;4973148;28;20058;-70
2021/03/07 01:36:59;;;;;;;8.67;4.70;;;0.60;62.70;;;;;;4974245;28;20468;-69
2021/03/07 01:39:25;;;;;;;6.97;4.47;;;0.70;62.40;;;;;;4974213;28;20026;-69
2021/03/07 01:41:50;;;;;;;11.00;4.73;;;0.70;62.00;;;;;;4971019;28;20050;-69
2021/03/07 01:44:16;;;;;;;7.53;4.50;;;0.70;61.70;;;;;;4956789;28;20042;-69
2021/03/07 01:46:42;;;;;;;7.63;4.57;;;0.80;61.30;;;;;;4973195;28;20031;-69
2021/03/07 01:49:07;;;;;;;9.73;5.00;;;0.80;60.80;;;;;;4974024;28;20039;-69
2021/03/07 01:51:33;;;;;;;8.97;5.20;;;0.80;60.50;;;;;;4961899;28;20485;-70
2021/03/07 01:53:58;;;;;;;7.17;4.30;;;0.90;60.60;;;;;;4966262;28;20069;-70
2021/03/07 01:56:26;;;;;;;9.10;5.10;;;0.90;60.40;;;;;;4956523;28;20395;-70
2021/03/07 01:58:54;;;;;;;9.73;4.43;;;0.90;60.00;;;;;;4967290;28;20071;-70
2021/03/07 02:01:20;;;;;;;9.43;4.87;;;1.00;59.70;;;;;;4961509;28;20043;-70
2021/03/07 02:03:51;;;;;;;8.53;4.90;;;0.90;59.70;;;;;;4960065;28;20074;-70
2021/03/07 02:06:17;;;;;;;6.88;3.97;;;0.90;59.70;;;;;;4969053;28;20062;-71
2021/03/07 02:08:43;;;;;;;9.43;4.30;;;0.90;59.60;;;;;;4968090;28;20086;-70
2021/03/07 02:11:09;;;;;;;11.83;4.90;;;1.00;59.70;;;;;;4960074;28;20488;-70
2021/03/07 02:13:40;;;;;;;7.47;4.53;;;0.90;59.30;;;;;;4961405;28;20459;-70
2021/03/07 02:16:18;;;;;;;9.13;4.20;;;0.80;59.30;;;;;;4968413;28;20507;-70
2021/03/07 02:18:46;;;;;;;6.83;4.23;;;0.90;59.20;;;;;;4940668;28;20122;-69
2021/03/07 02:21:18;;;;;;;9.13;5.00;;;0.90;59.00;;;;;;4965015;28;20035;-69
2021/03/07 02:24:07;;;;;;;7.43;4.40;;;1.00;58.60;;;;;;4965096;28;20031;-70
2021/03/07 02:26:54;;;;;;;7.53;3.77;;;1.00;58.60;;;;;;4955606;28;20134;-70
2021/03/07 02:29:21;;;;;;;7.13;4.43;;;0.90;58.50;;;;;;4972871;28;20114;-70
2021/03/07 02:31:59;;;;;;;8.00;4.13;;;0.90;58.70;;;;;;4959403;28;20134;-70
2021/03/07 02:34:49;;;;;;;6.33;3.67;;;0.90;58.70;;;;;;4969686;28;20547;-70
2021/03/07 02:37:16;;;;;;;8.50;4.03;;;0.90;58.60;;;;;;4964377;28;20035;-70
2021/03/07 02:39:44;;;;;;;9.93;5.20;;;0.90;58.50;;;;;;4964649;28;20522;-70
2021/03/07 02:42:17;;;;;;;7.47;4.13;;;1.00;58.30;;;;;;4972403;28;20039;-71
2021/03/07 02:45:09;;;;;;;8.10;4.83;;;1.00;58.40;;;;;;4941141;28;20081;-70
2021/03/07 02:47:37;;;;;;;9.20;4.07;;;1.00;58.30;;;;;;4960247;28;20064;-70
2021/03/07 02:50:18;;;;;;;6.70;4.10;;;1.00;58.60;;;;;;4967784;28;20031;-70
2021/03/07 02:52:49;;;;;;;9.07;4.30;;;1.00;58.40;;;;;;4941529;28;20464;-70
2021/03/07 02:55:17;;;;;;;8.27;3.83;;;1.00;58.50;;;;;;4964300;28;20544;-70
2021/03/07 02:57:46;;;;;;;7.20;4.30;;;1.00;58.40;;;;;;4964563;28;20035;-70
2021/03/07 03:00:12;;;;;;;10.03;4.63;;;1.00;58.30;;;;;;4973211;28;20039;-70
2021/03/07 03:02:40;;;;;;;8.33;4.20;;;0.90;58.80;;;;;;4972050;28;20512;-70
2021/03/07 03:05:08;;;;;;;7.63;4.50;;;0.90;58.50;;;;;;4975490;28;20480;-70
2021/03/07 03:07:34;;;;;;;8.37;4.40;;;0.80;58.40;;;;;;4959018;28;20035;-70
2021/03/07 03:10:03;;;;;;;8.87;4.57;;;0.80;58.30;;;;;;4976797;28;20042;-70
2021/03/07 03:12:32;;;;;;;8.13;4.27;;;0.90;58.40;;;;;;4975296;28;20031;-70
2021/03/07 03:14:58;;;;;;;9.17;4.20;;;0.90;58.30;;;;;;4959369;28;20047;-70
2021/03/07 03:17:25;;;;;;;7.37;4.17;;;0.80;58.50;;;;;;4976753;28;20118;-69
2021/03/07 03:19:53;;;;;;;6.77;3.63;;;0.80;58.20;;;;;;4953127;28;20063;-70
2021/03/07 03:22:19;;;;;;;7.83;4.47;;;0.80;58.40;;;;;;4959282;28;20045;-70
2021/03/07 03:24:45;;;;;;;8.23;3.90;;;0.80;58.30;;;;;;4958680;28;20034;-70
2021/03/07 03:27:14;;;;;;;5.93;3.80;;;0.80;58.30;;;;;;4959281;28;20039;-71
2021/03/07 03:29:39;;;;;;;8.00;4.10;;;0.90;58.50;;;;;;4958589;28;20039;-71
2021/03/07 03:32:05;;;;;;;7.83;3.73;;;0.90;58.50;;;;;;4959067;28;20041;-71
2021/03/07 03:34:31;;;;;;;7.83;3.93;;;0.80;58.10;;;;;;4958926;28;20075;-70
2021/03/07 03:36:57;;;;;;;7.83;3.77;;;0.80;58.10;;;;;;4958466;28;20035;-70
2021/03/07 03:39:26;;;;;;;8.00;3.70;;;0.80;57.90;;;;;;4976217;28;20042;-70
2021/03/07 03:41:57;;;;;;;6.10;3.70;;;0.80;58.20;;;;;;4957197;28;20035;-71
2021/03/07 03:44:28;;;;;;;8.17;4.20;;;0.80;58.30;;;;;;4958882;28;20053;-70
2021/03/07 03:46:58;;;;;;;8.23;3.50;;;0.80;58.20;;;;;;4976015;28;20039;-70
2021/03/07 03:49:26;;;;;;;9.03;3.77;;;0.80;58.40;;;;;;4975696;28;20121;-70
2021/03/07 03:52:07;;;;;;;7.07;3.80;;;0.80;58.60;;;;;;4968982;28;20093;-70
2021/03/07 03:54:42;;;;;;;7.37;3.67;;;0.90;57.60;;;;;;4975976;28;20134;-69
2021/03/07 03:57:08;;;;;;;7.40;3.87;;;1.00;57.50;;;;;;4976129;28;20041;-70
2021/03/07 03:59:37;;;;;;;8.57;4.10;;;1.10;57.20;;;;;;4975658;28;20034;-74
2021/03/07 04:02:04;;;;;;;7.20;3.97;;;1.10;56.70;;;;;;4968163;28;20422;-70
2021/03/07 04:04:30;;;;;;;6.50;3.93;;;1.10;56.70;;;;;;4968603;28;20110;-70
2021/03/07 04:06:57;;;;;;;6.80;3.63;;;1.10;56.90;;;;;;4968839;28;20543;-70
2021/03/07 04:09:24;;;;;;;11.03;3.93;;;1.10;57.00;;;;;;4963975;28;20039;-70
2021/03/07 04:11:50;;;;;;;7.83;3.97;;;1.10;57.20;;;;;;4972637;28;20526;-70
2021/03/07 04:14:18;;;;;;;7.13;3.60;;;1.20;57.30;;;;;;4958454;28;20476;-70
2021/03/07 04:16:48;;;;;;;5.63;3.57;;;1.10;57.30;;;;;;4943614;28;20054;-70
2021/03/07 04:19:16;;;;;;;7.97;4.13;;;1.10;57.50;;;;;;4966908;28;20082;-70
2021/03/07 04:21:42;;;;;;;7.80;4.00;;;1.00;57.80;;;;;;4965730;28;20038;-70
2021/03/07 04:24:09;;;;;;;7.57;4.10;;;1.00;57.90;;;;;;4971781;28;20053;-70
2021/03/07 04:26:35;;;;;;;8.73;4.60;;;0.90;58.10;;;;;;4957796;28;20086;-73
2021/03/07 04:29:01;;;;;;;9.20;4.50;;;0.80;58.60;;;;;;4968259;28;20031;-70
2021/03/07 04:31:27;;;;;;;6.43;3.70;;;0.90;58.90;;;;;;4964198;28;20439;-69
2021/03/07 04:33:53;;;;;;;8.50;4.47;;;0.80;58.80;;;;;;4960713;28;20031;-69
2021/03/07 04:36:18;;;;;;;9.13;4.83;;;0.70;58.60;;;;;;4970831;28;20559;-69
2021/03/07 04:38:44;;;;;;;7.67;4.27;;;0.70;59.00;;;;;;4969709;28;20465;-69
2021/03/07 04:41:11;;;;;;;7.70;4.30;;;0.70;59.30;;;;;;4961731;28;20043;-69
2021/03/07 04:43:54;;;;;;;7.50;3.90;;;0.80;59.50;;;;;;4962837;28;20127;-70
2021/03/07 04:46:21;;;;;;;7.43;4.73;;;0.80;59.10;;;;;;4972108;28;20104;-70
2021/03/07 04:48:47;;;;;;;7.23;4.17;;;0.80;59.20;;;;;;4969313;28;20063;-68
2021/03/07 04:51:13;;;;;;;9.37;4.70;;;0.70;59.20;;;;;;4962084;28;20100;-69
2021/03/07 04:53:38;;;;;;;8.93;4.40;;;0.70;59.30;;;;;;4962269;28;20484;-69
2021/03/07 04:56:04;;;;;;;8.03;4.60;;;0.60;59.80;;;;;;4968378;28;20046;-69
2021/03/07 04:58:30;;;;;;;12.13;5.03;;;0.60;60.40;;;;;;4957602;28;20031;-69
2021/03/07 05:00:56;;;;;;;10.60;4.50;;;0.60;60.60;;;;;;4967366;28;20497;-69
2021/03/07 05:03:21;;;;;;;7.47;4.13;;;0.60;60.30;;;;;;4962893;28;20484;-69
2021/03/07 05:05:48;;;;;;;13.73;4.63;;;0.60;60.60;;;;;;4974168;28;20047;-69
2021/03/07 05:08:14;;;;;;;7.67;4.37;;;0.60;60.50;;;;;;4974751;28;20035;-69
2021/03/07 05:10:40;;;;;;;8.47;4.70;;;0.50;60.40;;;;;;4973115;28;20041;-69
2021/03/07 05:13:05;;;;;;;8.97;4.60;;;0.50;60.60;;;;;;4966881;28;20477;-70
2021/03/07 05:15:31;;;;;;;8.40;4.57;;;0.50;60.80;;;;;;4963985;28;20448;-69
2021/03/07 05:17:57;;;;;;;10.23;4.93;;;0.40;60.80;;;;;;4971983;28;20519;-69
2021/03/07 05:20:22;;;;;;;9.07;4.77;;;0.40;61.00;;;;;;4971538;28;20395;-69
2021/03/07 05:22:48;;;;;;;8.30;4.47;;;0.30;61.20;;;;;;4973900;28;20035;-69
2021/03/07 05:25:14;;;;;;;8.23;4.23;;;0.30;61.50;;;;;;4974453;28;20050;-69
2021/03/07 05:27:40;;;;;;;7.50;4.23;;;0.30;61.20;;;;;;4960698;28;20401;-69
2021/03/07 05:30:06;;;;;;;7.57;4.73;;;0.20;61.30;;;;;;4969508;28;20039;-69
2021/03/07 05:32:32;;;;;;;9.37;4.50;;;0.20;61.40;;;;;;4956854;28;20067;-69
2021/03/07 05:34:57;;;;;;;9.13;4.87;;;0.20;61.40;;;;;;4973610;28;20081;-70
2021/03/07 05:37:23;;;;;;;8.63;4.17;;;0.20;61.70;;;;;;4963838;28;20047;-70
2021/03/07 05:39:48;;;;;;;8.97;4.77;;;0.10;62.10;;;;;;4952847;29;20443;-70
2021/03/07 05:42:14;;;;;;;10.13;5.00;;;0.10;62.10;;;;;;4969164;28;20046;-70
2021/03/07 05:44:40;;;;;;;10.80;4.50;;;0.10;62.40;;;;;;4973478;28;20039;-71
2021/03/07 05:47:06;;;;;;;9.43;4.40;;;0.10;62.00;;;;;;4966214;28;20035;-70
2021/03/07 05:49:33;;;;;;;8.70;4.97;;;0.10;62.10;;;;;;4963435;28;20043;-70
2021/03/07 05:51:59;;;;;;;9.57;4.70;;;0.10;62.20;;;;;;4973679;28;20042;-70
2021/03/07 05:54:25;;;;;;;10.63;5.13;;;0.10;62.60;;;;;;4973193;28;20042;-70
2021/03/07 05:56:53;;;;;;;9.83;4.67;;;0.00;62.90;;;;;;4967528;28;20078;-70
2021/03/07 05:59:19;;;;;;;10.90;5.30;;;0.00;63.10;;;;;;4961619;28;20428;-70
2021/03/07 06:01:45;;;;;;;9.70;5.40;;;0.00;63.90;;;;;;4973105;28;20038;-70
2021/03/07 06:04:11;;;;;;;9.20;4.83;;;0.00;64.10;;;;;;4973545;28;20189;-70
2021/03/07 06:06:36;;;;;;;9.80;4.90;;;0.00;64.20;;;;;;4955792;28;20041;-71
2021/03/07 06:09:28;;;;;;;9.17;5.40;;;-0.10;64.80;;;;;;4966400;28;20054;-70
2021/03/07 06:11:57;;;;;;;8.60;4.85;;;-0.10;64.90;;;;;;4964189;28;20042;-70
2021/03/07 06:14:26;;;;;;;8.93;5.10;;;-0.20;65.10;;;;;;4956198;28;20063;-71
2021/03/07 06:17:11;;;;;;;8.30;4.70;;;-0.20;65.30;;;;;;4966973;28;20063;-69
2021/03/07 06:20:06;;;;;;;8.73;5.07;;;-0.10;65.50;;;;;;4964487;28;20113;-69
2021/03/07 06:22:33;;;;;;;11.10;4.63;;;-0.10;65.70;;;;;;4973382;28;20524;-72
2021/03/07 06:25:00;;;;;;;11.40;4.77;;;-0.10;65.70;;;;;;4972463;28;20078;-69
2021/03/07 06:27:27;;;;;;;9.60;4.63;;;-0.10;65.80;;;;;;4963092;28;20031;-72
2021/03/07 06:30:15;;;;;;;9.03;4.33;;;-0.10;65.80;;;;;;4965175;28;20035;-69
2021/03/07 06:32:43;;;;;;;9.00;4.53;;;-0.10;66.00;;;;;;4955402;28;20031;-69
2021/03/07 06:35:11;;;;;;;10.17;4.67;;;-0.10;65.90;;;;;;4964788;28;20039;-69
2021/03/07 06:37:53;;;;;;;9.20;5.03;;;-0.10;65.80;;;;;;4962844;28;20035;-72
2021/03/07 06:40:28;;;;;;;10.52;4.93;;;-0.10;65.60;;;;;;4975812;28;20075;-70
2021/03/07 06:42:55;;;;;;;10.03;4.70;;;0.00;65.10;;;;;;4962931;28;20046;-70
2021/03/07 06:45:20;;;;;;;9.33;3.97;;;0.00;64.70;;;;;;4979669;28;20125;-70
2021/03/07 06:47:58;;;;;;;8.07;4.47;;;0.00;64.80;;;;;;4965489;28;20067;-70
2021/03/07 06:50:25;;;;;;;9.47;4.70;;;0.10;64.70;;;;;;4975168;28;20134;-71
2021/03/07 06:52:55;;;;;;;7.53;4.50;;;0.10;64.40;;;;;;4978650;28;20031;-70
2021/03/07 06:55:29;;;;;;;9.63;4.90;;;0.10;64.30;;;;;;4969502;28;20061;-70
2021/03/07 06:57:55;;;;;;;10.83;4.50;;;0.10;64.00;;;;;;4971173;28;20039;-71
2021/03/07 07:00:40;;;;;;;9.73;4.67;;;0.20;63.80;;;;;;4979244;28;20041;-71
2021/03/07 07:03:11;;;;;;;12.00;4.97;;;0.20;63.50;;;;;;4971564;28;20403;-71
2021/03/07 07:05:41;;;;;;;8.30;4.05;;;0.20;63.20;;;;;;4969142;28;20133;-71
2021/03/07 07:08:08;;;;;;;6.87;4.17;;;0.30;63.30;;;;;;4979282;28;20054;-70
2021/03/07 07:10:49;;;;;;;7.63;4.17;;;0.30;63.20;;;;;;4959571;28;20117;-71
2021/03/07 07:13:15;;;;;;;9.80;4.70;;;0.30;63.10;;;;;;4966431;28;20047;-70
2021/03/07 07:15:56;;;;;;;7.97;3.97;;;0.30;63.10;;;;;;4965402;28;20467;-71
2021/03/07 07:18:23;;;;;;;8.38;4.65;;;0.30;63.50;;;;;;4970540;28;20503;-70
2021/03/07 07:20:51;;;;;;;8.87;4.20;;;0.30;63.50;;;;;;4973065;28;20043;-69
2021/03/07 07:23:19;;;;;;;7.07;3.90;;;0.40;63.30;;;;;;4966901;28;20150;-70
2021/03/07 07:25:45;;;;;;;9.50;4.10;;;0.50;62.90;;;;;;4965755;28;20373;-70
2021/03/07 07:28:10;;;;;;;6.60;3.90;;;0.40;62.10;;;;;;4973969;28;20045;-69
2021/03/07 07:30:37;;;;;;;9.40;4.50;;;0.50;62.20;;;;;;4961389;28;20039;-70
2021/03/07 07:33:07;;;;;;;7.77;4.47;;;0.50;62.00;;;;;;4971912;28;20031;-69
2021/03/07 07:35:35;;;;;;;18.97;9.17;;;0.50;61.80;;;;;;4970322;28;20038;-69
2021/03/07 07:38:03;;;;;;;9.13;4.43;;;0.60;62.20;;;;;;4963905;28;20567;-69
2021/03/07 07:40:35;;;;;;;10.23;4.00;;;0.70;61.90;;;;;;4976505;28;20062;-69
2021/03/07 07:43:02;;;;;;;7.37;3.73;;;0.70;62.20;;;;;;4972069;28;20183;-70
2021/03/07 07:45:28;;;;;;;10.20;4.43;;;0.80;61.70;;;;;;4963370;28;20039;-70
2021/03/07 07:47:56;;;;;;;8.43;3.80;;;0.80;61.30;;;;;;4968465;28;20043;-70
2021/03/07 07:50:28;;;;;;;8.37;4.33;;;0.80;61.00;;;;;;4973112;28;20039;-70
2021/03/07 07:52:55;;;;;;;9.38;4.22;;;0.80;60.80;;;;;;4975555;28;20031;-69
2021/03/07 07:55:43;;;;;;;7.43;3.93;;;0.80;60.90;;;;;;4971026;28;20064;-70
2021/03/07 07:58:09;;;;;;;7.77;4.47;;;0.90;61.30;;;;;;4956336;28;20130;-69
2021/03/07 08:00:51;;;;;;;6.60;3.63;;;0.80;60.60;;;;;;4959973;28;20039;-72
2021/03/07 08:03:49;;;;;;;13.50;7.13;;;0.80;60.80;;;;;;4953060;28;20057;-69
2021/03/07 08:06:27;;;;;;;8.00;4.50;;;0.80;61.10;;;;;;4933752;29;20573;-69
2021/03/07 08:08:53;;;;;;;9.73;5.10;;;0.80;60.80;;;;;;4944958;28;20488;-70
2021/03/07 08:11:18;;;;;;;9.73;4.43;;;0.90;61.10;;;;;;4973530;28;20126;-69
2021/03/07 08:13:47;;;;;;;9.03;4.33;;;1.00;60.40;;;;;;4962419;28;20118;-69
2021/03/07 08:16:13;;;;;;;7.20;4.30;;;0.90;60.70;;;;;;4960534;28;20039;-69
2021/03/07 08:18:57;;;;;;;8.40;4.50;;;0.80;60.90;;;;;;4958428;28;20034;-70
2021/03/07 08:21:23;;;;;;;6.97;4.17;;;0.90;61.10;;;;;;4954763;28;20118;-69
2021/03/07 08:24:02;;;;;;;8.93;4.13;;;1.00;61.40;;;;;;4955384;28;20494;-69
2021/03/07 08:26:48;;;;;;;7.50;4.33;;;1.00;60.50;;;;;;4956486;28;20043;-70
2021/03/07 08:29:46;;;;;;;11.83;4.27;;;1.10;60.50;;;;;;4948762;28;20038;-70
2021/03/07 08:32:38;;;;;;;6.53;3.90;;;1.10;60.40;;;;;;4955531;28;20031;-69
2021/03/07 08:35:19;;;;;;;7.22;4.20;;;1.10;60.10;;;;;;4952681;28;20035;-71
2021/03/07 08:38:09;;;;;;;6.40;3.13;;;1.20;60.80;;;;;;4955542;28;20510;-71
2021/03/07 08:40:36;;;;;;;9.03;4.67;;;1.30;60.60;;;;;;4958007;28;20789;-70
2021/03/07 08:43:25;;;;;;;7.73;4.20;;;1.30;60.00;;;;;;4954431;28;20043;-70
2021/03/07 08:46:07;;;;;;;9.03;4.03;;;1.30;60.20;;;;;;4948071;28;20074;-70
2021/03/07 08:48:34;;;;;;;9.68;4.53;;;1.40;60.50;;;;;;4957110;28;20039;-69
2021/03/07 08:51:00;;;;;;;8.23;4.67;;;1.50;59.90;;;;;;4967237;28;20039;-70
2021/03/07 08:53:29;;;;;;;7.37;4.70;;;1.60;59.90;;;;;;4964992;28;20030;-70
2021/03/07 08:55:55;;;;;;;10.73;5.07;;;1.70;59.50;;;;;;4955128;28;20047;-70
2021/03/07 08:58:22;;;;;;;8.97;4.40;;;1.60;59.50;;;;;;4958195;28;20098;-70
2021/03/07 09:00:50;;;;;;;11.00;5.03;;;1.70;59.20;;;;;;4970166;28;20042;-70
2021/03/07 09:03:17;;;;;;;10.87;4.60;;;1.70;59.30;;;;;;4963146;28;20111;-70
2021/03/07 09:05:44;;;;;;;6.80;3.97;;;1.80;59.00;;;;;;4965057;28;20114;-72
2021/03/07 09:08:11;;;;;;;9.70;5.10;;;1.80;58.70;;;;;;4958057;28;20094;-73
2021/03/07 09:10:44;;;;;;;8.07;4.50;;;1.90;58.80;;;;;;4972326;28;20053;-73
2021/03/07 09:13:24;;;;;;;7.97;4.27;;;1.90;58.80;;;;;;4974868;28;20039;-72
2021/03/07 09:15:51;;;;;;;8.90;4.47;;;1.90;58.40;;;;;;4959861;28;20408;-72
2021/03/07 09:18:19;;;;;;;6.97;4.20;;;1.90;58.40;;;;;;4969964;28;20041;-72
2021/03/07 09:20:48;;;;;;;11.80;5.23;;;2.00;58.60;;;;;;4969110;28;20034;-72
2021/03/07 09:23:43;;;;;;;8.03;4.20;;;2.10;58.80;;;;;;4962897;28;20030;-70
2021/03/07 09:26:20;;;;;;;8.83;4.40;;;2.10;58.00;;;;;;4958335;28;20066;-71
2021/03/07 09:28:51;;;;;;;7.47;4.23;;;2.10;58.30;;;;;;4943790;28;20037;-71
2021/03/07 09:31:19;;;;;;;8.47;4.60;;;2.30;58.60;;;;;;4962365;28;20042;-71
2021/03/07 09:33:53;;;;;;;8.13;4.73;;;2.30;58.50;;;;;;4960902;28;20046;-72
2021/03/07 09:36:21;;;;;;;9.27;4.70;;;2.40;58.50;;;;;;4960986;28;20043;-71
2021/03/07 09:38:48;;;;;;;11.20;4.50;;;2.40;58.20;;;;;;4968588;28;20031;-72
2021/03/07 09:41:16;;;;;;;9.53;4.57;;;2.50;57.70;;;;;;4961244;28;20039;-71
2021/03/07 09:43:46;;;;;;;8.17;4.67;;;2.60;57.70;;;;;;4961088;28;20070;-71
2021/03/07 09:46:12;;;;;;;7.43;4.70;;;2.60;57.60;;;;;;4961626;28;20050;-72
2021/03/07 09:48:38;;;;;;;7.97;4.73;;;2.80;57.40;;;;;;4973024;28;20043;-71
2021/03/07 09:51:05;;;;;;;8.30;4.53;;;2.90;57.10;;;;;;4966289;28;20047;-72
2021/03/07 09:53:35;;;;;;;7.80;4.63;;;3.10;56.60;;;;;;4963558;28;20170;-72
2021/03/07 09:56:00;;;;;;;9.30;4.80;;;3.30;56.30;;;;;;4958368;28;20047;-72
2021/03/07 09:58:36;;;;;;;7.17;4.43;;;3.40;55.60;;;;;;4970564;28;20615;-71
2021/03/07 10:01:06;;;;;;;9.17;5.00;;;3.60;56.00;;;;;;4966902;28;20082;-71
2021/03/07 10:03:34;;;;;;;8.73;4.27;;;3.70;55.50;;;;;;4963071;28;20051;-72
2021/03/07 10:06:19;;;;;;;6.67;4.50;;;3.80;55.00;;;;;;4973314;28;20035;-70
2021/03/07 10:09:02;;;;;;;8.13;4.57;;;4.10;54.30;;;;;;4968239;28;20035;-69
2021/03/07 10:11:27;;;;;;;8.80;4.63;;;4.10;54.10;;;;;;4957527;28;20039;-72
2021/03/07 10:14:04;;;;;;;6.80;4.27;;;4.30;53.70;;;;;;4958905;28;20396;-73
2021/03/07 10:16:34;;;;;;;7.50;4.20;;;4.40;53.60;;;;;;4970427;28;20042;-71
2021/03/07 10:19:14;;;;;;;9.20;5.17;;;4.50;52.90;;;;;;4964285;28;20089;-73
2021/03/07 10:21:58;;;;;;;8.43;4.73;;;4.50;53.30;;;;;;4962885;28;20039;-71
2021/03/07 10:24:32;;;;;;;8.13;4.70;;;4.70;53.60;;;;;;4955929;28;20488;-70
2021/03/07 10:27:34;;;;;;;11.37;5.50;;;4.80;53.20;;;;;;4966150;28;20046;-70
2021/03/07 10:30:13;;;;;;;9.77;4.82;;;4.90;52.90;;;;;;4959824;28;20163;-69
2021/03/07 10:32:44;;;;;;;8.10;4.80;;;5.00;53.70;;;;;;4972119;28;20041;-70
2021/03/07 10:35:13;;;;;;;7.63;4.53;;;5.00;52.70;;;;;;4964718;28;20085;-71
2021/03/07 10:37:43;;;;;;;8.87;4.53;;;5.10;52.60;;;;;;4951772;29;20477;-71
2021/03/07 10:40:30;;;;;;;8.77;4.70;;;5.20;51.80;;;;;;4967455;28;20094;-70
2021/03/07 10:43:04;;;;;;;10.60;4.80;;;5.30;51.30;;;;;;4944728;28;20225;-71
2021/03/07 10:48:42;;;;;;;7.57;4.60;;;5.40;51.70;;;;;;4958988;28;20067;-71
2021/03/07 10:51:32;;;;;;;9.23;4.77;;;5.60;50.90;;;;;;4947145;28;20484;-71
2021/03/07 10:54:01;;;;;;;9.27;4.67;;;5.60;51.80;;;;;;4957928;28;20039;-72
2021/03/07 10:56:34;;;;;;;10.43;5.07;;;5.60;50.90;;;;;;4969837;28;20046;-70
2021/03/07 10:59:09;;;;;;;30.23;13.97;;;5.70;51.20;;;;;;4965727;28;20130;-72
2021/03/07 11:01:38;;;;;;;12.07;5.57;;;5.80;51.50;;;;;;4953386;28;20377;-72
2021/03/07 11:04:04;;;;;;;10.17;5.33;;;6.00;50.60;;;;;;4966757;28;20042;-72
2021/03/07 11:06:39;;;;;;;8.30;4.93;;;6.00;50.30;;;;;;4953667;28;20036;-71
2021/03/07 11:09:25;;;;;;;10.30;4.93;;;6.10;49.90;;;;;;4949823;28;20083;-72
2021/03/07 11:11:53;;;;;;;9.90;4.87;;;6.00;50.40;;;;;;4949618;29;20043;-72
2021/03/07 11:14:38;;;;;;;9.60;5.43;;;6.00;50.20;;;;;;4968260;28;20038;-73
2021/03/07 11:17:07;;;;;;;7.53;4.80;;;6.10;50.10;;;;;;4959146;28;20484;-71
2021/03/07 11:19:43;;;;;;;9.67;5.03;;;5.90;51.10;;;;;;4955878;28;20122;-73
2021/03/07 11:22:11;;;;;;;8.23;4.90;;;5.70;50.70;;;;;;4950371;28;20035;-72
2021/03/07 11:24:37;;;;;;;8.47;4.93;;;5.70;51.50;;;;;;4954153;28;20042;-74
2021/03/07 11:27:02;;;;;;;8.47;5.00;;;5.60;51.70;;;;;;4959734;28;20043;-72
2021/03/07 11:29:33;;;;;;;8.43;4.83;;;5.60;52.90;;;;;;4961993;28;20031;-71
2021/03/07 11:32:03;;;;;;;8.77;4.73;;;5.60;51.30;;;;;;4960446;28;20044;-72
2021/03/07 11:34:35;;;;;;;9.20;4.90;;;5.60;52.10;;;;;;4974765;28;20034;-73
2021/03/07 11:37:18;;;;;;;7.30;4.70;;;5.60;51.50;;;;;;4965812;28;20033;-71
2021/03/07 11:39:49;;;;;;;6.73;4.40;;;5.60;51.70;;;;;;4949713;28;20362;-72
2021/03/07 11:42:22;;;;;;;8.10;5.00;;;5.60;51.80;;;;;;4963417;28;20044;-71
2021/03/07 11:44:55;;;;;;;7.93;5.10;;;5.60;51.90;;;;;;4959119;28;20055;-72
2021/03/07 11:47:21;;;;;;;9.60;5.03;;;5.70;52.10;;;;;;4974158;28;20039;-72
2021/03/07 11:49:57;;;;;;;;;;;;;;;;;;;;;
2021/03/07 11:52:27;;;;;;;9.10;5.20;;;5.60;51.80;;;;;;4973724;28;20034;-72
2021/03/07 11:54:56;;;;;;;9.47;4.83;;;5.70;52.00;;;;;;4968833;28;20138;-72
2021/03/07 11:57:21;;;;;;;9.77;5.30;;;5.70;51.60;;;;;;4956106;28;20054;-71
2021/03/07 11:59:47;;;;;;;7.50;4.87;;;5.70;51.40;;;;;;4954581;29;20400;-71
2021/03/07 12:02:13;;;;;;;8.83;5.10;;;5.70;52.10;;;;;;4958404;28;20488;-70
2021/03/07 12:04:38;;;;;;;9.50;4.97;;;5.80;52.30;;;;;;4958544;28;20094;-75
2021/03/07 12:07:04;;;;;;;9.37;5.50;;;5.90;51.50;;;;;;4967191;28;20034;-70
2021/03/07 12:09:30;;;;;;;9.50;5.50;;;6.00;51.80;;;;;;4956206;28;20090;-70
2021/03/07 12:11:55;;;;;;;8.20;4.63;;;6.00;51.90;;;;;;4953533;28;20408;-71
2021/03/07 12:14:21;;;;;;;9.87;5.53;;;6.20;50.90;;;;;;4957299;28;20039;-71
2021/03/07 12:16:47;;;;;;;9.93;5.17;;;6.40;50.70;;;;;;4955410;28;20048;-71
2021/03/07 12:19:13;;;;;;;9.60;4.97;;;6.50;50.80;;;;;;4954648;28;20078;-70
2021/03/07 12:21:38;;;;;;;10.00;5.40;;;6.80;50.40;;;;;;4955006;28;20039;-74
2021/03/07 12:24:07;;;;;;;8.83;5.23;;;7.00;49.80;;;;;;4968312;28;20078;-71
2021/03/07 12:26:36;;;;;;;8.77;5.27;;;7.20;50.20;;;;;;4955523;28;20079;-70
2021/03/07 12:29:04;;;;;;;8.80;5.80;;;7.50;50.80;;;;;;4958234;28;20039;-71
2021/03/07 12:31:32;;;;;;;8.33;4.87;;;7.70;48.30;;;;;;4957044;28;20031;-70
2021/03/07 12:34:04;;;;;;;9.77;5.33;;;8.00;47.50;;;;;;4955111;28;20035;-71
2021/03/07 12:36:33;;;;;;;8.93;5.37;;;8.20;47.30;;;;;;4956113;28;20039;-72
2021/03/07 12:39:00;;;;;;;8.00;5.57;;;8.50;47.30;;;;;;4953787;28;20035;-71
2021/03/07 12:41:27;;;;;;;9.80;5.93;;;8.80;47.80;;;;;;4962384;28;20046;-72
2021/03/07 12:43:53;;;;;;;11.10;5.53;;;9.10;47.10;;;;;;4953792;28;20048;-72
2021/03/07 12:46:18;;;;;;;8.90;5.20;;;9.40;44.50;;;;;;4962608;28;20499;-72
2021/03/07 12:48:44;;;;;;;8.85;5.03;;;9.60;43.60;;;;;;4973591;28;20404;-71
2021/03/07 12:51:13;;;;;;;10.63;5.85;;;9.80;43.30;;;;;;4968102;28;20050;-72
2021/03/07 12:53:41;;;;;;;9.10;5.57;;;10.10;43.40;;;;;;4964690;28;20078;-72
2021/03/07 12:56:12;;;;;;;9.38;5.38;;;10.40;44.30;;;;;;4968016;28;20447;-70
2021/03/07 12:58:40;;;;;;;8.10;5.35;;;10.60;43.30;;;;;;4956961;28;20043;-75
2021/03/07 13:01:06;;;;;;;9.52;5.75;;;10.80;41.80;;;;;;4966784;28;20046;-73
2021/03/07 13:03:35;;;;;;;8.60;5.57;;;11.00;40.90;;;;;;4963225;28;20059;-73
2021/03/07 13:06:00;;;;;;;10.98;5.15;;;11.50;41.40;;;;;;4973727;28;20054;-73
2021/03/07 13:08:46;;;;;;;;;;;;;;;;;;;;;
2021/03/07 13:11:14;;;;;;;9.27;5.53;;;13.60;38.50;;;;;;4967548;28;20058;-72
2021/03/07 13:13:42;;;;;;;8.23;5.47;;;14.40;36.20;;;;;;4964070;28;20118;-74
2021/03/07 13:16:29;;;;;;;9.68;5.72;;;14.40;35.50;;;;;;4973802;28;20051;-71